createdAt,value
2018-09-05T00:02:03.750Z,25.67
2018-09-05T00:04:35.766Z,29.20
2018-09-05T00:07:07.791Z,28.80
2018-09-05T00:09:39.769Z,28.87
2018-09-05T00:12:11.749Z,27.23
2018-09-05T00:14:43.772Z,26.57
2018-09-05T00:17:15.790Z,29.30
2018-09-05T00:19:47.782Z,25.80
2018-09-05T00:22:19.891Z,27.57
2018-09-05T00:24:51.882Z,27.10
2018-09-05T00:27:23.918Z,25.67
2018-09-05T00:29:56.063Z,26.47
2018-09-05T00:32:28.071Z,25.57
2018-09-05T00:35:00.162Z,26.00
2018-09-05T00:37:32.151Z,26.70
2018-09-05T00:40:04.212Z,26.60
2018-09-05T00:42:36.299Z,26.03
2018-09-05T00:45:08.282Z,29.70
2018-09-05T00:47:40.257Z,27.20
2018-09-05T00:50:12.230Z,28.50
2018-09-05T00:52:44.211Z,26.53
2018-09-05T00:55:16.247Z,27.03
2018-09-05T00:57:48.226Z,27.50
2018-09-05T01:00:20.219Z,27.17
2018-09-05T01:02:52.220Z,25.53
2018-09-05T01:05:24.215Z,25.97
2018-09-05T01:07:56.234Z,29.83
2018-09-05T01:10:28.223Z,30.00
2018-09-05T01:13:00.239Z,30.93
2018-09-05T01:15:32.282Z,31.10
2018-09-05T01:18:04.342Z,31.77
2018-09-05T01:20:36.362Z,33.20
2018-09-05T01:23:08.391Z,32.50
2018-09-05T01:25:40.472Z,31.07
2018-09-05T01:28:12.501Z,31.70
2018-09-05T01:30:44.514Z,33.77
2018-09-05T01:33:16.601Z,34.60
2018-09-05T01:35:48.932Z,33.90
2018-09-05T01:38:20.940Z,31.83
2018-09-05T01:40:52.970Z,30.60
2018-09-05T01:43:24.957Z,30.77
2018-09-05T01:45:56.931Z,31.60
2018-09-05T01:48:28.926Z,31.73
2018-09-05T01:51:00.917Z,31.90
2018-09-05T01:53:32.979Z,32.13
2018-09-05T01:56:05.179Z,31.60
2018-09-05T01:58:37.216Z,29.00
2018-09-05T02:01:09.250Z,28.47
2018-09-05T02:03:41.350Z,32.40
2018-09-05T02:06:13.399Z,29.87
2018-09-05T02:08:45.384Z,26.70
2018-09-05T02:11:18.090Z,27.67
2018-09-05T02:13:50.112Z,28.57
2018-09-05T02:16:22.083Z,26.20
2018-09-05T02:18:54.070Z,26.60
2018-09-05T02:21:26.044Z,29.70
2018-09-05T02:23:58.084Z,29.17
2018-09-05T02:26:30.123Z,29.37
2018-09-05T02:29:02.129Z,26.63
2018-09-05T02:31:34.163Z,28.60
2018-09-05T02:34:06.179Z,24.90
2018-09-05T02:36:38.187Z,30.07
2018-09-05T02:39:11.023Z,27.10
2018-09-05T02:41:43.034Z,28.53
2018-09-05T02:44:20.550Z,29.57
2018-09-05T02:46:52.598Z,27.87
2018-09-05T02:49:24.666Z,28.10
2018-09-05T02:51:56.675Z,29.57
2018-09-05T02:54:28.714Z,30.83
2018-09-05T02:57:00.842Z,31.33
2018-09-05T02:59:32.995Z,31.50
2018-09-05T03:02:05.028Z,30.70
2018-09-05T03:04:37.106Z,30.60
2018-09-05T03:07:09.159Z,28.70
2018-09-05T03:09:41.207Z,30.47
2018-09-05T03:12:17.806Z,28.07
2018-09-05T03:14:51.275Z,28.07
2018-09-05T03:17:23.288Z,26.27
2018-09-05T03:19:55.289Z,26.43
2018-09-05T03:22:27.347Z,25.90
2018-09-05T03:24:59.420Z,27.07
2018-09-05T03:27:31.438Z,28.47
2018-09-05T03:30:03.547Z,27.40
2018-09-05T03:32:35.712Z,24.90
2018-09-05T03:35:07.621Z,26.87
2018-09-05T03:37:39.639Z,28.70
2018-09-05T03:40:11.688Z,26.77
2018-09-05T03:42:43.764Z,28.30
2018-09-05T03:45:15.758Z,27.40
2018-09-05T03:47:47.758Z,26.00
2018-09-05T03:50:19.861Z,28.60
2018-09-05T03:52:51.929Z,28.27
2018-09-05T03:55:23.933Z,25.80
2018-09-05T03:57:55.956Z,29.23
2018-09-05T04:00:31.392Z,27.93
2018-09-05T04:03:04.256Z,27.97
2018-09-05T04:05:36.286Z,28.27
2018-09-05T04:08:08.301Z,27.37
2018-09-05T04:10:40.602Z,28.03
2018-09-05T04:13:12.627Z,28.83
2018-09-05T04:15:44.641Z,29.70
2018-09-05T04:18:16.653Z,28.03
2018-09-05T04:20:48.745Z,30.57
2018-09-05T04:23:20.776Z,27.47
2018-09-05T04:25:52.803Z,30.10
2018-09-05T04:28:24.885Z,30.13
2018-09-05T04:30:57.013Z,27.13
2018-09-05T04:33:29.145Z,30.07
2018-09-05T04:36:01.202Z,30.47
2018-09-05T04:38:33.299Z,30.00
2018-09-05T04:41:05.348Z,27.87
2018-09-05T04:43:37.395Z,31.43
2018-09-05T04:46:09.543Z,29.30
2018-09-05T04:48:41.549Z,30.60
2018-09-05T04:51:13.595Z,29.53
2018-09-05T04:53:45.636Z,30.30
2018-09-05T04:56:17.652Z,29.00
2018-09-05T04:58:49.686Z,30.20
2018-09-05T05:01:21.728Z,30.80
2018-09-05T05:03:53.869Z,31.27
2018-09-05T05:06:25.855Z,30.53
2018-09-05T05:08:57.911Z,30.40
2018-09-05T05:11:29.923Z,27.87
2018-09-05T05:14:02.050Z,27.23
2018-09-05T05:16:34.116Z,28.70
2018-09-05T05:19:06.162Z,28.67
2018-09-05T05:21:38.160Z,29.77
2018-09-05T05:24:10.232Z,31.60
2018-09-05T05:26:42.318Z,31.67
2018-09-05T05:29:14.334Z,29.80
2018-09-05T05:31:46.389Z,28.53
2018-09-05T05:34:18.856Z,29.47
2018-09-05T05:36:50.980Z,27.73
2018-09-05T05:39:23.427Z,29.40
2018-09-05T05:41:55.490Z,29.50
2018-09-05T05:44:27.530Z,26.73
2018-09-05T05:46:59.579Z,29.47
2018-09-05T05:49:31.714Z,28.80
2018-09-05T05:52:03.727Z,31.40
2018-09-05T05:54:35.773Z,27.90
2018-09-05T05:57:07.782Z,28.87
2018-09-05T05:59:39.827Z,27.30
2018-09-05T06:02:11.907Z,27.50
2018-09-05T06:04:44.120Z,28.20
2018-09-05T06:07:16.254Z,27.53
2018-09-05T06:09:48.442Z,26.23
2018-09-05T06:12:20.545Z,28.10
2018-09-05T06:14:52.574Z,29.37
2018-09-05T06:17:24.646Z,25.37
2018-09-05T06:19:56.748Z,28.47
2018-09-05T06:22:29.116Z,26.50
2018-09-05T06:25:01.174Z,28.03
2018-09-05T06:27:33.223Z,28.37
2018-09-05T06:30:05.390Z,26.23
2018-09-05T06:32:37.383Z,27.07
2018-09-05T06:35:09.420Z,27.10
2018-09-05T06:37:41.457Z,26.50
2018-09-05T06:40:13.464Z,26.50
2018-09-05T06:42:45.453Z,27.90
2018-09-05T06:45:17.480Z,29.33
2018-09-05T06:47:49.522Z,27.30
2018-09-05T06:50:21.653Z,30.00
2018-09-05T06:52:53.730Z,28.00
2018-09-05T06:55:25.830Z,28.20
2018-09-05T06:57:57.968Z,27.40
2018-09-05T07:00:30.087Z,27.57
2018-09-05T07:03:02.147Z,25.50
2018-09-05T07:05:34.296Z,26.17
2018-09-05T07:08:06.384Z,28.50
2018-09-05T07:10:38.470Z,25.97
2018-09-05T07:13:10.541Z,27.47
2018-09-05T07:15:42.612Z,26.63
2018-09-05T07:18:14.612Z,26.37
2018-09-05T07:20:46.706Z,25.23
2018-09-05T07:23:18.714Z,28.37
2018-09-05T07:25:50.708Z,27.50
2018-09-05T07:28:23.021Z,26.90
2018-09-05T07:30:55.229Z,28.47
2018-09-05T07:33:27.330Z,27.70
2018-09-05T07:35:59.442Z,28.10
2018-09-05T07:38:31.572Z,27.60
2018-09-05T07:41:04.094Z,26.77
2018-09-05T07:43:36.998Z,27.87
2018-09-05T07:46:09.041Z,26.97
2018-09-05T07:48:41.210Z,27.13
2018-09-05T07:51:13.352Z,27.30
2018-09-05T07:53:45.380Z,26.20
2018-09-05T07:56:17.410Z,28.17
2018-09-05T07:58:49.539Z,27.53
2018-09-05T08:01:21.551Z,29.40
2018-09-05T08:03:53.681Z,27.83
2018-09-05T08:06:25.702Z,27.27
2018-09-05T08:08:57.766Z,27.53
2018-09-05T08:11:29.811Z,28.20
2018-09-05T08:14:01.822Z,26.33
2018-09-05T08:16:33.946Z,25.70
2018-09-05T08:19:06.101Z,27.03
2018-09-05T08:21:38.202Z,25.00
2018-09-05T08:24:10.261Z,24.40
2018-09-05T08:26:42.370Z,23.57
2018-09-05T08:29:14.451Z,24.33
2018-09-05T08:31:46.429Z,24.37
2018-09-05T08:34:18.570Z,23.93
2018-09-05T08:36:50.810Z,23.77
2018-09-05T08:39:22.567Z,23.33
2018-09-05T08:41:54.595Z,24.60
2018-09-05T08:44:26.692Z,24.37
2018-09-05T08:46:58.667Z,23.40
2018-09-05T08:49:30.687Z,23.17
2018-09-05T08:52:02.699Z,25.77
2018-09-05T08:54:34.733Z,24.50
2018-09-05T08:57:07.409Z,23.30
2018-09-05T08:59:39.516Z,24.57
2018-09-05T09:02:11.546Z,26.77
2018-09-05T09:04:43.670Z,25.10
2018-09-05T09:07:15.696Z,23.10
2018-09-05T09:09:47.765Z,24.50
2018-09-05T09:12:20.063Z,24.23
2018-09-05T09:14:52.067Z,26.33
2018-09-05T09:17:24.158Z,26.57
2018-09-05T09:19:56.386Z,26.07
2018-09-05T09:22:28.456Z,27.63
2018-09-05T09:25:00.474Z,25.70
2018-09-05T09:27:32.572Z,24.53
2018-09-05T09:30:04.783Z,24.40
2018-09-05T09:32:36.892Z,26.73
2018-09-05T09:35:08.907Z,24.33
2018-09-05T09:37:41.017Z,22.87
2018-09-05T09:40:13.003Z,22.80
2018-09-05T09:42:45.133Z,23.60
2018-09-05T09:45:17.219Z,21.10
2018-09-05T09:47:49.319Z,22.10
2018-09-05T09:50:21.481Z,23.60
2018-09-05T09:52:53.557Z,23.43
2018-09-05T09:55:25.566Z,21.60
2018-09-05T09:57:57.620Z,23.60
2018-09-05T10:00:35.332Z,23.27
2018-09-05T10:03:12.922Z,24.57
2018-09-05T10:05:50.744Z,25.33
2018-09-05T10:08:28.541Z,24.20
2018-09-05T10:12:30.191Z,22.53
2018-09-05T10:15:06.783Z,23.50
2018-09-05T10:17:38.786Z,23.30
2018-09-05T10:20:10.887Z,24.20
2018-09-05T10:22:42.976Z,24.80
2018-09-05T10:25:14.902Z,27.50
2018-09-05T10:27:46.935Z,24.83
2018-09-05T10:30:18.967Z,24.67
2018-09-05T10:32:50.991Z,25.20
2018-09-05T10:35:23.013Z,25.67
2018-09-05T10:37:55.022Z,25.03
2018-09-05T10:40:27.135Z,25.17
2018-09-05T10:42:59.162Z,25.30
2018-09-05T10:45:31.203Z,25.03
2018-09-05T10:48:03.378Z,24.20
2018-09-05T10:50:35.394Z,22.73
2018-09-05T10:53:07.412Z,23.43
2018-09-05T10:55:39.427Z,24.97
2018-09-05T10:58:11.610Z,25.50
2018-09-05T11:00:43.661Z,24.17
2018-09-05T11:03:15.697Z,24.00
2018-09-05T11:05:47.727Z,24.70
2018-09-05T11:08:19.735Z,25.57
2018-09-05T11:10:51.847Z,22.57
2018-09-05T11:13:23.808Z,25.30
2018-09-05T11:15:55.839Z,25.93
2018-09-05T11:18:27.841Z,25.67
2018-09-05T11:20:59.920Z,24.23
2018-09-05T11:23:31.938Z,25.20
2018-09-05T11:26:03.954Z,25.27
2018-09-05T11:28:36.046Z,25.80
2018-09-05T11:31:08.098Z,25.10
2018-09-05T11:33:40.090Z,25.20
2018-09-05T11:36:12.103Z,22.80
2018-09-05T11:38:44.093Z,22.47
2018-09-05T11:41:16.117Z,26.80
2018-09-05T11:43:48.531Z,24.10
2018-09-05T11:46:20.721Z,24.37
2018-09-05T11:48:52.704Z,24.30
2018-09-05T11:51:24.734Z,23.60
2018-09-05T11:53:56.719Z,23.13
2018-09-05T11:56:28.739Z,27.07
2018-09-05T11:59:00.764Z,24.80
2018-09-05T12:01:32.801Z,23.33
2018-09-05T12:04:04.835Z,24.90
2018-09-05T12:06:37.008Z,24.73
2018-09-05T12:09:09.913Z,25.37
2018-09-05T12:11:41.942Z,26.37
2018-09-05T12:14:13.940Z,24.30
2018-09-05T12:16:46.015Z,22.83
2018-09-05T12:19:18.292Z,20.70
2018-09-05T12:21:50.418Z,23.00
2018-09-05T12:24:22.490Z,23.00
2018-09-05T12:26:54.542Z,23.37
2018-09-05T12:29:29.235Z,23.77
2018-09-05T12:32:01.357Z,26.10
2018-09-05T12:34:33.411Z,24.37
2018-09-05T12:37:05.430Z,23.63
2018-09-05T12:39:37.499Z,23.97
2018-09-05T12:42:09.679Z,23.20
2018-09-05T12:44:41.774Z,25.30
2018-09-05T12:47:13.812Z,26.40
2018-09-05T12:49:45.830Z,26.20
2018-09-05T12:52:17.846Z,26.10
2018-09-05T12:54:50.971Z,24.63
2018-09-05T12:57:23.054Z,23.70
2018-09-05T12:59:55.177Z,22.60
2018-09-05T13:02:27.203Z,23.50
2018-09-05T13:04:59.259Z,24.53
2018-09-05T13:07:31.283Z,23.93
2018-09-05T13:10:03.363Z,22.13
2018-09-05T13:12:35.643Z,22.53
2018-09-05T13:15:07.635Z,24.33
2018-09-05T13:17:39.683Z,22.83
2018-09-05T13:20:11.950Z,20.80
2018-09-05T13:22:44.019Z,21.37
2018-09-05T13:25:16.142Z,21.60
2018-09-05T13:27:48.279Z,22.40
2018-09-05T13:30:26.151Z,20.93
2018-09-05T13:32:58.189Z,19.40
2018-09-05T13:35:30.366Z,21.10
2018-09-05T13:38:02.410Z,20.53
2018-09-05T13:40:34.457Z,20.83
2018-09-05T13:43:06.608Z,17.60
2018-09-05T13:45:38.660Z,19.00
2018-09-05T13:48:10.727Z,18.07
2018-09-05T13:50:42.768Z,19.47
2018-09-05T13:53:14.772Z,17.90
2018-09-05T13:55:46.851Z,18.63
2018-09-05T13:58:18.899Z,17.03
2018-09-05T14:00:50.986Z,17.83
2018-09-05T14:03:23.032Z,17.80
2018-09-05T14:05:55.079Z,18.27
2018-09-05T14:08:27.202Z,17.50
2018-09-05T14:10:59.253Z,18.43
2018-09-05T14:13:31.385Z,17.33
2018-09-05T14:16:03.678Z,15.70
2018-09-05T14:18:35.708Z,14.93
2018-09-05T14:21:07.737Z,15.27
2018-09-05T14:23:39.832Z,16.40
2018-09-05T14:26:11.863Z,15.03
2018-09-05T14:28:43.889Z,15.30
2018-09-05T14:31:15.924Z,13.73
2018-09-05T14:33:47.979Z,16.40
2018-09-05T14:36:20.038Z,16.93
2018-09-05T14:38:52.067Z,15.60
2018-09-05T14:41:24.054Z,17.40
2018-09-05T14:43:56.090Z,16.03
2018-09-05T14:46:28.086Z,15.30
2018-09-05T14:49:00.110Z,14.23
2018-09-05T14:51:32.192Z,14.30
2018-09-05T14:54:04.270Z,14.60
2018-09-05T14:56:36.208Z,16.53
2018-09-05T14:59:08.240Z,14.43
2018-09-05T15:01:40.235Z,14.50
2018-09-05T15:04:12.283Z,15.80
2018-09-05T15:06:44.290Z,14.53
2018-09-05T15:09:16.362Z,15.73
2018-09-05T15:11:48.416Z,16.10
2018-09-05T15:14:20.371Z,14.27
2018-09-05T15:16:52.355Z,14.50
2018-09-05T15:19:24.359Z,13.10
2018-09-05T15:21:56.386Z,12.20
2018-09-05T15:24:28.384Z,14.90
2018-09-05T15:27:00.430Z,14.67
2018-09-05T15:29:32.473Z,15.00
2018-09-05T15:32:04.509Z,14.33
2018-09-05T15:34:36.499Z,15.03
2018-09-05T15:37:08.514Z,16.40
2018-09-05T15:39:40.576Z,13.60
2018-09-05T15:42:12.563Z,14.80
2018-09-05T15:44:44.557Z,14.10
2018-09-05T15:47:16.566Z,15.17
2018-09-05T15:49:48.551Z,14.10
2018-09-05T15:52:20.557Z,15.87
2018-09-05T15:54:52.542Z,15.43
2018-09-05T15:57:24.588Z,14.87
2018-09-05T15:59:56.635Z,15.03
2018-09-05T16:02:28.698Z,15.20
2018-09-05T16:05:00.712Z,14.70
2018-09-05T16:07:32.709Z,15.00
2018-09-05T16:10:04.770Z,15.33
2018-09-05T16:12:36.785Z,17.30
2018-09-05T16:15:08.869Z,16.47
2018-09-05T16:17:40.774Z,17.10
2018-09-05T16:20:12.813Z,15.47
2018-09-05T16:22:44.812Z,16.60
2018-09-05T16:25:16.845Z,17.70
2018-09-05T16:27:48.877Z,17.63
2018-09-05T16:30:20.882Z,17.07
2018-09-05T16:32:52.906Z,16.63
2018-09-05T16:35:24.982Z,15.80
2018-09-05T16:37:56.935Z,16.30
2018-09-05T16:40:28.927Z,17.20
2018-09-05T16:43:01.026Z,15.70
2018-09-05T16:45:33.129Z,16.40
2018-09-05T16:48:05.258Z,15.63
2018-09-05T16:50:37.252Z,16.20
2018-09-05T16:53:09.276Z,15.90
2018-09-05T16:55:41.304Z,15.17
2018-09-05T16:58:13.300Z,15.00
2018-09-05T17:00:45.322Z,14.83
2018-09-05T17:03:17.330Z,14.33
2018-09-05T17:05:49.352Z,14.80
2018-09-05T17:08:21.354Z,15.23
2018-09-05T17:10:53.387Z,14.93
2018-09-05T17:13:25.424Z,15.47
2018-09-05T17:15:57.574Z,15.47
2018-09-05T17:18:29.657Z,15.83
2018-09-05T17:21:01.680Z,15.47
2018-09-05T17:23:33.700Z,16.20
2018-09-05T17:26:05.749Z,15.97
2018-09-05T17:28:37.784Z,15.83
2018-09-05T17:31:09.844Z,16.00
2018-09-05T17:33:41.844Z,17.50
2018-09-05T17:36:14.101Z,16.97
2018-09-05T17:38:46.143Z,17.00
2018-09-05T17:41:18.172Z,15.53
2018-09-05T17:43:50.175Z,15.47
2018-09-05T17:46:22.215Z,16.07
2018-09-05T17:48:54.220Z,15.30
2018-09-05T17:51:26.274Z,15.43
2018-09-05T17:53:58.268Z,16.20
2018-09-05T17:56:30.321Z,16.13
2018-09-05T17:59:02.417Z,17.23
2018-09-05T18:01:35.546Z,15.20
2018-09-05T18:04:07.570Z,17.37
2018-09-05T18:06:39.594Z,16.27
2018-09-05T18:09:11.973Z,16.37
2018-09-05T18:11:44.038Z,17.43
2018-09-05T18:14:16.065Z,16.07
2018-09-05T18:16:48.241Z,16.73
2018-09-05T18:19:20.414Z,16.13
2018-09-05T18:21:52.551Z,16.50
2018-09-05T18:24:24.605Z,16.47
2018-09-05T18:26:56.807Z,18.00
2018-09-05T18:29:28.818Z,15.77
2018-09-05T18:32:01.187Z,15.80
2018-09-05T18:34:33.252Z,15.37
2018-09-05T18:37:05.480Z,16.60
2018-09-05T18:39:37.624Z,15.83
2018-09-05T18:42:09.639Z,17.50
2018-09-05T18:44:41.807Z,18.10
2018-09-05T18:47:14.868Z,16.23
2018-09-05T18:49:46.999Z,17.27
2018-09-05T18:52:19.095Z,16.47
2018-09-05T18:54:51.112Z,17.10
2018-09-05T18:57:23.239Z,19.70
2018-09-05T18:59:55.266Z,16.77
2018-09-05T19:02:27.313Z,18.30
2018-09-05T19:04:59.571Z,18.90
2018-09-05T19:10:10.509Z,17.70
2018-09-05T19:12:42.567Z,19.03
2018-09-05T19:15:14.675Z,16.40
2018-09-05T19:17:46.834Z,18.10
2018-09-05T19:20:18.866Z,17.83
2018-09-05T19:22:50.952Z,19.60
2018-09-05T19:25:23.105Z,18.70
2018-09-05T19:27:55.176Z,19.43
2018-09-05T19:30:27.242Z,20.80
2018-09-05T19:32:59.266Z,19.03
2018-09-05T19:35:31.706Z,18.30
2018-09-05T19:38:03.702Z,20.00
2018-09-05T19:40:35.840Z,18.90
2018-09-05T19:43:07.864Z,22.10
2018-09-05T19:45:39.953Z,19.80
2018-09-05T19:48:11.974Z,20.77
2018-09-05T19:50:44.136Z,21.07
2018-09-05T19:53:16.226Z,21.17
2018-09-05T19:55:48.253Z,21.13
2018-09-05T19:58:20.493Z,20.80
2018-09-05T20:00:52.669Z,21.17
2018-09-05T20:03:31.672Z,19.37
2018-09-05T20:06:03.686Z,20.77
2018-09-05T20:08:35.747Z,19.27
2018-09-05T20:11:08.435Z,20.83
2018-09-05T20:13:40.583Z,19.90
2018-09-05T20:16:13.514Z,21.00
2018-09-05T20:18:45.620Z,19.10
2018-09-05T20:21:17.650Z,20.80
2018-09-05T20:23:49.695Z,20.07
2018-09-05T20:26:22.489Z,20.07
2018-09-05T20:28:55.255Z,21.03
2018-09-05T20:31:27.229Z,19.77
2018-09-05T20:33:59.471Z,19.93
2018-09-05T20:36:32.011Z,21.23
2018-09-05T20:39:07.234Z,19.73
2018-09-05T20:41:39.430Z,19.90
2018-09-05T20:44:11.451Z,20.60
2018-09-05T20:46:43.476Z,20.90
2018-09-05T20:49:15.532Z,19.70
2018-09-05T20:51:47.786Z,19.77
2018-09-05T20:54:19.872Z,20.00
2018-09-05T20:56:52.177Z,21.40
2018-09-05T20:59:24.473Z,22.20
2018-09-05T21:01:56.534Z,21.13
2018-09-05T21:04:28.824Z,21.40
2018-09-05T21:07:00.947Z,19.47
2018-09-05T21:09:34.167Z,19.53
2018-09-05T21:12:06.179Z,18.27
2018-09-05T21:14:38.262Z,19.00
2018-09-05T21:17:10.584Z,20.00
2018-09-05T21:19:42.860Z,21.40
2018-09-05T21:22:16.111Z,18.90
2018-09-05T21:24:48.295Z,21.10
2018-09-05T21:27:20.358Z,19.90
2018-09-05T21:29:52.393Z,19.37
2018-09-05T21:32:24.424Z,20.07
2018-09-05T21:34:56.568Z,22.00
2018-09-05T21:37:28.641Z,23.00
2018-09-05T21:40:00.708Z,21.60
2018-09-05T21:42:32.718Z,20.50
2018-09-05T21:45:05.160Z,21.03
2018-09-05T21:47:37.189Z,20.57
2018-09-05T21:50:09.219Z,22.77
2018-09-05T21:52:41.303Z,23.07
2018-09-05T21:55:13.346Z,22.37
2018-09-05T21:57:45.362Z,19.90
2018-09-05T22:00:17.347Z,21.13
2018-09-05T22:02:49.457Z,20.30
2018-09-05T22:05:21.484Z,21.60
2018-09-05T22:07:53.713Z,21.03
2018-09-05T22:10:25.715Z,20.57
2018-09-05T22:12:57.751Z,21.67
2018-09-05T22:15:34.959Z,19.93
2018-09-05T22:18:06.986Z,19.33
2018-09-05T22:20:38.986Z,22.60
2018-09-05T22:23:11.091Z,21.57
2018-09-05T22:25:43.124Z,20.10
2018-09-05T22:28:15.118Z,21.27
2018-09-05T22:30:47.150Z,21.40
2018-09-05T22:33:19.169Z,23.03
2018-09-05T22:35:51.182Z,21.77
2018-09-05T22:38:23.184Z,20.80
2018-09-05T22:40:55.651Z,21.30
2018-09-05T22:43:39.176Z,19.53
2018-09-05T22:46:22.648Z,22.07
2018-09-05T22:51:25.221Z,23.70
2018-09-05T22:56:21.675Z,22.90
2018-09-05T23:00:06.861Z,20.17
2018-09-05T23:04:52.676Z,19.37
2018-09-05T23:09:39.455Z,21.20
2018-09-05T23:12:24.770Z,18.70
2018-09-05T23:15:08.399Z,20.47
2018-09-05T23:19:59.733Z,20.53
2018-09-05T23:22:43.408Z,20.57
2018-09-05T23:25:15.403Z,19.17
2018-09-05T23:27:47.453Z,22.27
2018-09-05T23:30:19.488Z,24.00
2018-09-05T23:32:51.536Z,23.50
2018-09-05T23:35:23.560Z,21.00
2018-09-05T23:37:55.594Z,21.80
2018-09-05T23:40:27.657Z,21.57
2018-09-05T23:42:59.798Z,22.07
2018-09-05T23:45:31.861Z,21.97
2018-09-05T23:48:04.125Z,21.40
2018-09-05T23:50:36.139Z,22.37
2018-09-05T23:53:08.250Z,24.10
2018-09-05T23:55:40.313Z,22.70
2018-09-05T23:58:12.366Z,22.90
